Goodyear, Arizona
Current Conditions -  °F | °C
As of 8:47 PM on Friday 24 Oct 2014 (Local Time) from KGYR Reporting Station
Clear Clear  
Wind Chill: 81°   Ceiling: Unl
Heat Index: 81°   Visibility: 10mi
Dew Point: 54°   Wind: 0mph
Humidity: 39%   Direction: NA
Pressure: 29.98"   Gusts: NA
Location:  33.44°N, 112.35°W
Report Text: KGYR 250347Z 00000KT 10SM SKC 27/12 A2998 RMK LAST
Loading
Personal Weather Stations






























Interactive Weather Map
Tropical Storm Tracking
New forecast layout! Learn more

10-Day Weather Forecast

Advertisements
Track Severe Weather on mobile